sensor_id;sensor_type;location;lat;lon;timestamp;P1;durP1;ratioP1;P2;durP2;ratioP2
51098;SDS011;37146;48.210;16.234;2022-09-12T00:02:18;4.60;;;3.75;;
51098;SDS011;37146;48.210;16.234;2022-09-12T00:04:43;6.03;;;3.85;;
51098;SDS011;37146;48.210;16.234;2022-09-12T00:07:08;7.07;;;4.38;;
51098;SDS011;37146;48.210;16.234;2022-09-12T00:09:34;4.43;;;3.80;;
51098;SDS011;37146;48.210;16.234;2022-09-12T00:11:59;6.50;;;3.92;;
51098;SDS011;37146;48.210;16.234;2022-09-12T00:14:25;5.78;;;4.05;;
51098;SDS011;37146;48.210;16.234;2022-09-12T00:16:50;6.70;;;3.88;;
51098;SDS011;37146;48.210;16.234;2022-09-12T00:19:15;7.07;;;4.57;;
51098;SDS011;37146;48.210;16.234;2022-09-12T00:21:41;4.88;;;4.38;;
51098;SDS011;37146;48.210;16.234;2022-09-12T00:24:07;4.80;;;4.20;;
51098;SDS011;37146;48.210;16.234;2022-09-12T00:26:32;6.47;;;4.30;;
51098;SDS011;37146;48.210;16.234;2022-09-12T00:28:58;4.78;;;3.97;;
51098;SDS011;37146;48.210;16.234;2022-09-12T00:31:24;6.72;;;4.20;;
51098;SDS011;37146;48.210;16.234;2022-09-12T00:33:51;6.95;;;4.53;;
51098;SDS011;37146;48.210;16.234;2022-09-12T00:36:19;6.93;;;4.10;;
51098;SDS011;37146;48.210;16.234;2022-09-12T00:38:46;6.05;;;4.10;;
51098;SDS011;37146;48.210;16.234;2022-09-12T00:43:48;6.90;;;4.43;;
51098;SDS011;37146;48.210;16.234;2022-09-12T00:49:03;8.85;;;4.60;;
51098;SDS011;37146;48.210;16.234;2022-09-12T00:51:34;5.95;;;4.82;;
51098;SDS011;37146;48.210;16.234;2022-09-12T00:54:02;5.70;;;4.53;;
51098;SDS011;37146;48.210;16.234;2022-09-12T00:56:32;5.20;;;4.70;;
51098;SDS011;37146;48.210;16.234;2022-09-12T00:59:01;8.07;;;4.63;;
51098;SDS011;37146;48.210;16.234;2022-09-12T01:01:32;5.72;;;4.68;;
51098;SDS011;37146;48.210;16.234;2022-09-12T01:03:58;7.97;;;5.35;;
51098;SDS011;37146;48.210;16.234;2022-09-12T01:06:26;7.80;;;4.60;;
51098;SDS011;37146;48.210;16.234;2022-09-12T01:08:54;10.75;;;5.07;;
51098;SDS011;37146;48.210;16.234;2022-09-12T01:11:20;6.85;;;5.38;;
51098;SDS011;37146;48.210;16.234;2022-09-12T01:13:46;6.50;;;5.70;;
51098;SDS011;37146;48.210;16.234;2022-09-12T01:16:12;7.07;;;5.07;;
51098;SDS011;37146;48.210;16.234;2022-09-12T01:18:41;9.35;;;5.25;;
51098;SDS011;37146;48.210;16.234;2022-09-12T01:30:04;11.57;;;5.40;;
51098;SDS011;37146;48.210;16.234;2022-09-12T01:32:52;10.97;;;5.53;;
51098;SDS011;37146;48.210;16.234;2022-09-12T01:44:02;8.45;;;5.45;;
51098;SDS011;37146;48.210;16.234;2022-09-12T01:46:46;6.72;;;5.35;;
51098;SDS011;37146;48.210;16.234;2022-09-12T01:49:25;7.75;;;5.90;;
51098;SDS011;37146;48.210;16.234;2022-09-12T01:52:03;9.05;;;5.63;;
51098;SDS011;37146;48.210;16.234;2022-09-12T01:54:56;9.65;;;5.38;;
51098;SDS011;37146;48.210;16.234;2022-09-12T01:57:28;8.45;;;5.65;;
51098;SDS011;37146;48.210;16.234;2022-09-12T02:00:10;9.45;;;5.38;;
51098;SDS011;37146;48.210;16.234;2022-09-12T02:02:38;9.93;;;5.88;;
51098;SDS011;37146;48.210;16.234;2022-09-12T02:05:08;8.43;;;6.63;;
51098;SDS011;37146;48.210;16.234;2022-09-12T02:10:22;6.78;;;5.45;;
51098;SDS011;37146;48.210;16.234;2022-09-12T02:12:52;9.77;;;6.13;;
51098;SDS011;37146;48.210;16.234;2022-09-12T02:15:20;8.73;;;5.68;;
51098;SDS011;37146;48.210;16.234;2022-09-12T02:17:51;7.65;;;5.60;;
51098;SDS011;37146;48.210;16.234;2022-09-12T02:20:25;8.57;;;5.75;;
51098;SDS011;37146;48.210;16.234;2022-09-12T02:22:53;8.60;;;6.00;;
51098;SDS011;37146;48.210;16.234;2022-09-12T02:25:21;6.60;;;5.28;;
51098;SDS011;37146;48.210;16.234;2022-09-12T02:27:50;8.70;;;5.75;;
51098;SDS011;37146;48.210;16.234;2022-09-12T02:30:20;7.47;;;5.70;;
51098;SDS011;37146;48.210;16.234;2022-09-12T02:32:55;8.65;;;6.00;;
51098;SDS011;37146;48.210;16.234;2022-09-12T02:38:34;9.68;;;5.80;;
51098;SDS011;37146;48.210;16.234;2022-09-12T02:41:05;7.25;;;6.10;;
51098;SDS011;37146;48.210;16.234;2022-09-12T02:43:31;12.57;;;7.07;;
51098;SDS011;37146;48.210;16.234;2022-09-12T02:45:57;9.43;;;6.68;;
51098;SDS011;37146;48.210;16.234;2022-09-12T02:48:24;10.45;;;6.75;;
51098;SDS011;37146;48.210;16.234;2022-09-12T02:50:54;10.68;;;6.38;;
51098;SDS011;37146;48.210;16.234;2022-09-12T02:53:20;8.15;;;6.43;;
51098;SDS011;37146;48.210;16.234;2022-09-12T02:55:46;10.38;;;7.10;;
51098;SDS011;37146;48.210;16.234;2022-09-12T02:58:14;10.60;;;7.53;;
51098;SDS011;37146;48.210;16.234;2022-09-12T03:00:50;11.30;;;7.03;;
51098;SDS011;37146;48.210;16.234;2022-09-12T03:03:57;9.95;;;6.53;;
51098;SDS011;37146;48.210;16.234;2022-09-12T03:09:09;9.25;;;7.28;;
51098;SDS011;37146;48.210;16.234;2022-09-12T03:17:00;11.43;;;7.47;;
51098;SDS011;37146;48.210;16.234;2022-09-12T03:22:30;8.88;;;6.93;;
51098;SDS011;37146;48.210;16.234;2022-09-12T03:25:05;10.15;;;7.30;;
51098;SDS011;37146;48.210;16.234;2022-09-12T03:27:34;9.95;;;6.93;;
51098;SDS011;37146;48.210;16.234;2022-09-12T03:30:03;12.00;;;7.25;;
51098;SDS011;37146;48.210;16.234;2022-09-12T03:32:39;13.43;;;7.63;;
51098;SDS011;37146;48.210;16.234;2022-09-12T03:35:09;9.45;;;7.25;;
51098;SDS011;37146;48.210;16.234;2022-09-12T03:37:36;12.05;;;7.25;;
51098;SDS011;37146;48.210;16.234;2022-09-12T03:40:02;9.65;;;7.13;;
51098;SDS011;37146;48.210;16.234;2022-09-12T03:42:28;10.50;;;6.85;;
51098;SDS011;37146;48.210;16.234;2022-09-12T03:44:54;9.35;;;7.50;;
51098;SDS011;37146;48.210;16.234;2022-09-12T03:47:19;13.30;;;6.97;;
51098;SDS011;37146;48.210;16.234;2022-09-12T03:49:44;9.30;;;7.15;;
51098;SDS011;37146;48.210;16.234;2022-09-12T03:52:10;8.95;;;7.30;;
51098;SDS011;37146;48.210;16.234;2022-09-12T03:54:36;9.02;;;7.43;;
51098;SDS011;37146;48.210;16.234;2022-09-12T03:57:01;11.43;;;7.40;;
51098;SDS011;37146;48.210;16.234;2022-09-12T03:59:27;9.43;;;7.07;;
51098;SDS011;37146;48.210;16.234;2022-09-12T04:01:52;10.85;;;6.70;;
51098;SDS011;37146;48.210;16.234;2022-09-12T04:04:17;10.27;;;7.40;;
51098;SDS011;37146;48.210;16.234;2022-09-12T04:06:43;8.20;;;6.80;;
51098;SDS011;37146;48.210;16.234;2022-09-12T04:09:08;11.23;;;6.68;;
51098;SDS011;37146;48.210;16.234;2022-09-12T04:11:34;11.57;;;7.18;;
51098;SDS011;37146;48.210;16.234;2022-09-12T04:14:00;10.00;;;7.13;;
51098;SDS011;37146;48.210;16.234;2022-09-12T04:16:25;7.43;;;6.63;;
51098;SDS011;37146;48.210;16.234;2022-09-12T04:18:50;12.18;;;7.45;;
51098;SDS011;37146;48.210;16.234;2022-09-12T04:21:17;9.35;;;6.97;;
51098;SDS011;37146;48.210;16.234;2022-09-12T04:23:43;14.18;;;7.30;;
51098;SDS011;37146;48.210;16.234;2022-09-12T04:26:09;9.68;;;7.32;;
51098;SDS011;37146;48.210;16.234;2022-09-12T04:28:35;8.73;;;6.82;;
51098;SDS011;37146;48.210;16.234;2022-09-12T04:31:02;10.10;;;7.03;;
51098;SDS011;37146;48.210;16.234;2022-09-12T04:33:30;9.43;;;7.82;;
51098;SDS011;37146;48.210;16.234;2022-09-12T04:35:55;11.05;;;7.10;;
51098;SDS011;37146;48.210;16.234;2022-09-12T04:38:21;9.95;;;7.20;;
51098;SDS011;37146;48.210;16.234;2022-09-12T04:40:46;10.10;;;7.28;;
51098;SDS011;37146;48.210;16.234;2022-09-12T04:43:11;10.52;;;7.18;;
51098;SDS011;37146;48.210;16.234;2022-09-12T04:45:37;9.75;;;6.93;;
51098;SDS011;37146;48.210;16.234;2022-09-12T04:48:02;11.00;;;7.13;;
51098;SDS011;37146;48.210;16.234;2022-09-12T04:50:27;10.55;;;6.55;;
51098;SDS011;37146;48.210;16.234;2022-09-12T04:52:53;8.00;;;6.55;;
51098;SDS011;37146;48.210;16.234;2022-09-12T04:55:19;10.30;;;6.82;;
51098;SDS011;37146;48.210;16.234;2022-09-12T04:57:45;8.68;;;5.95;;
51098;SDS011;37146;48.210;16.234;2022-09-12T05:00:11;13.02;;;6.53;;
51098;SDS011;37146;48.210;16.234;2022-09-12T05:02:37;14.70;;;6.90;;
51098;SDS011;37146;48.210;16.234;2022-09-12T05:05:03;14.85;;;6.47;;
51098;SDS011;37146;48.210;16.234;2022-09-12T05:07:28;14.18;;;6.60;;
51098;SDS011;37146;48.210;16.234;2022-09-12T05:09:53;11.73;;;6.25;;
51098;SDS011;37146;48.210;16.234;2022-09-12T05:12:19;13.32;;;7.05;;
51098;SDS011;37146;48.210;16.234;2022-09-12T05:14:44;11.50;;;6.63;;
51098;SDS011;37146;48.210;16.234;2022-09-12T05:17:10;9.52;;;5.60;;
51098;SDS011;37146;48.210;16.234;2022-09-12T05:19:35;9.55;;;5.78;;
51098;SDS011;37146;48.210;16.234;2022-09-12T05:22:01;8.60;;;5.82;;
51098;SDS011;37146;48.210;16.234;2022-09-12T05:24:26;9.77;;;5.68;;
51098;SDS011;37146;48.210;16.234;2022-09-12T05:26:52;8.65;;;5.65;;
51098;SDS011;37146;48.210;16.234;2022-09-12T05:29:17;8.45;;;5.82;;
51098;SDS011;37146;48.210;16.234;2022-09-12T05:31:43;7.88;;;5.43;;
51098;SDS011;37146;48.210;16.234;2022-09-12T05:34:08;9.48;;;5.10;;
51098;SDS011;37146;48.210;16.234;2022-09-12T05:36:34;7.13;;;5.53;;
51098;SDS011;37146;48.210;16.234;2022-09-12T05:39:01;6.82;;;5.30;;
51098;SDS011;37146;48.210;16.234;2022-09-12T05:41:29;7.43;;;5.28;;
51098;SDS011;37146;48.210;16.234;2022-09-12T05:43:56;6.75;;;5.38;;
51098;SDS011;37146;48.210;16.234;2022-09-12T05:46:24;9.73;;;5.95;;
51098;SDS011;37146;48.210;16.234;2022-09-12T05:48:51;11.35;;;5.38;;
51098;SDS011;37146;48.210;16.234;2022-09-12T05:51:25;6.78;;;5.20;;
51098;SDS011;37146;48.210;16.234;2022-09-12T05:53:56;8.27;;;5.43;;
51098;SDS011;37146;48.210;16.234;2022-09-12T05:56:24;7.57;;;5.20;;
51098;SDS011;37146;48.210;16.234;2022-09-12T05:58:55;7.20;;;5.32;;
51098;SDS011;37146;48.210;16.234;2022-09-12T06:01:22;8.23;;;5.30;;
51098;SDS011;37146;48.210;16.234;2022-09-12T06:03:49;9.48;;;5.40;;
51098;SDS011;37146;48.210;16.234;2022-09-12T06:06:17;10.48;;;5.78;;
51098;SDS011;37146;48.210;16.234;2022-09-12T06:08:45;8.80;;;5.30;;
51098;SDS011;37146;48.210;16.234;2022-09-12T06:11:12;11.15;;;5.43;;
51098;SDS011;37146;48.210;16.234;2022-09-12T06:13:40;8.05;;;5.25;;
51098;SDS011;37146;48.210;16.234;2022-09-12T06:18:33;8.23;;;4.65;;
51098;SDS011;37146;48.210;16.234;2022-09-12T06:23:29;7.35;;;5.28;;
51098;SDS011;37146;48.210;16.234;2022-09-12T06:25:55;8.88;;;4.30;;
51098;SDS011;37146;48.210;16.234;2022-09-12T06:28:20;8.73;;;4.63;;
51098;SDS011;37146;48.210;16.234;2022-09-12T06:30:46;7.13;;;4.70;;
51098;SDS011;37146;48.210;16.234;2022-09-12T06:33:12;9.05;;;4.90;;
51098;SDS011;37146;48.210;16.234;2022-09-12T06:35:38;6.50;;;4.72;;
51098;SDS011;37146;48.210;16.234;2022-09-12T06:38:03;5.20;;;4.05;;
51098;SDS011;37146;48.210;16.234;2022-09-12T06:40:29;5.60;;;4.20;;
51098;SDS011;37146;48.210;16.234;2022-09-12T06:42:55;5.93;;;4.03;;
51098;SDS011;37146;48.210;16.234;2022-09-12T06:45:21;5.18;;;4.10;;
51098;SDS011;37146;48.210;16.234;2022-09-12T06:47:46;7.82;;;4.20;;
51098;SDS011;37146;48.210;16.234;2022-09-12T06:50:12;6.20;;;4.60;;
51098;SDS011;37146;48.210;16.234;2022-09-12T06:52:37;6.53;;;4.40;;
51098;SDS011;37146;48.210;16.234;2022-09-12T06:55:03;5.60;;;4.32;;
51098;SDS011;37146;48.210;16.234;2022-09-12T06:57:29;6.72;;;4.60;;
51098;SDS011;37146;48.210;16.234;2022-09-12T06:59:56;7.75;;;4.57;;
51098;SDS011;37146;48.210;16.234;2022-09-12T07:02:21;5.47;;;4.15;;
51098;SDS011;37146;48.210;16.234;2022-09-12T07:04:49;6.47;;;3.90;;
51098;SDS011;37146;48.210;16.234;2022-09-12T07:07:15;6.45;;;4.57;;
51098;SDS011;37146;48.210;16.234;2022-09-12T07:09:41;6.22;;;4.50;;
51098;SDS011;37146;48.210;16.234;2022-09-12T07:12:06;6.55;;;4.68;;
51098;SDS011;37146;48.210;16.234;2022-09-12T07:14:32;5.38;;;4.03;;
51098;SDS011;37146;48.210;16.234;2022-09-12T07:16:57;5.05;;;3.75;;
51098;SDS011;37146;48.210;16.234;2022-09-12T07:19:23;8.45;;;4.30;;
51098;SDS011;37146;48.210;16.234;2022-09-12T07:21:48;5.28;;;4.40;;
51098;SDS011;37146;48.210;16.234;2022-09-12T07:24:14;7.88;;;4.20;;
51098;SDS011;37146;48.210;16.234;2022-09-12T07:26:39;5.93;;;3.75;;
51098;SDS011;37146;48.210;16.234;2022-09-12T07:29:06;6.55;;;4.18;;
51098;SDS011;37146;48.210;16.234;2022-09-12T07:31:36;8.13;;;4.50;;
51098;SDS011;37146;48.210;16.234;2022-09-12T07:34:04;7.07;;;4.47;;
51098;SDS011;37146;48.210;16.234;2022-09-12T07:36:30;6.90;;;4.18;;
51098;SDS011;37146;48.210;16.234;2022-09-12T07:38:56;6.13;;;4.28;;
51098;SDS011;37146;48.210;16.234;2022-09-12T07:41:24;7.07;;;4.78;;
51098;SDS011;37146;48.210;16.234;2022-09-12T07:43:52;6.53;;;4.70;;
51098;SDS011;37146;48.210;16.234;2022-09-12T07:46:18;7.55;;;4.35;;
51098;SDS011;37146;48.210;16.234;2022-09-12T07:48:53;6.28;;;4.20;;
51098;SDS011;37146;48.210;16.234;2022-09-12T07:51:20;5.70;;;4.43;;
51098;SDS011;37146;48.210;16.234;2022-09-12T07:53:46;7.43;;;4.13;;
51098;SDS011;37146;48.210;16.234;2022-09-12T07:56:13;6.68;;;4.30;;
51098;SDS011;37146;48.210;16.234;2022-09-12T07:58:39;4.95;;;4.00;;
51098;SDS011;37146;48.210;16.234;2022-09-12T08:01:10;6.53;;;4.38;;
51098;SDS011;37146;48.210;16.234;2022-09-12T08:03:40;6.53;;;4.13;;
51098;SDS011;37146;48.210;16.234;2022-09-12T08:06:11;6.63;;;4.60;;
51098;SDS011;37146;48.210;16.234;2022-09-12T08:08:44;6.28;;;4.00;;
51098;SDS011;37146;48.210;16.234;2022-09-12T08:11:11;6.65;;;3.90;;
51098;SDS011;37146;48.210;16.234;2022-09-12T08:13:38;6.80;;;4.05;;
51098;SDS011;37146;48.210;16.234;2022-09-12T08:16:10;5.03;;;3.95;;
51098;SDS011;37146;48.210;16.234;2022-09-12T08:18:36;7.80;;;4.07;;
51098;SDS011;37146;48.210;16.234;2022-09-12T08:21:04;4.15;;;3.53;;
51098;SDS011;37146;48.210;16.234;2022-09-12T08:23:31;5.03;;;3.70;;
51098;SDS011;37146;48.210;16.234;2022-09-12T08:25:57;4.80;;;3.33;;
51098;SDS011;37146;48.210;16.234;2022-09-12T08:28:25;5.47;;;3.30;;
51098;SDS011;37146;48.210;16.234;2022-09-12T08:30:51;3.75;;;3.25;;
51098;SDS011;37146;48.210;16.234;2022-09-12T08:33:18;3.63;;;3.10;;
51098;SDS011;37146;48.210;16.234;2022-09-12T08:35:43;3.75;;;3.22;;
51098;SDS011;37146;48.210;16.234;2022-09-12T08:38:09;5.10;;;3.42;;
51098;SDS011;37146;48.210;16.234;2022-09-12T08:40:41;5.97;;;3.30;;
51098;SDS011;37146;48.210;16.234;2022-09-12T08:46:07;4.57;;;2.95;;
51098;SDS011;37146;48.210;16.234;2022-09-12T08:48:43;3.50;;;2.88;;
51098;SDS011;37146;48.210;16.234;2022-09-12T08:51:11;3.00;;;2.50;;
51098;SDS011;37146;48.210;16.234;2022-09-12T08:53:39;5.15;;;2.65;;
51098;SDS011;37146;48.210;16.234;2022-09-12T08:56:06;3.78;;;2.75;;
51098;SDS011;37146;48.210;16.234;2022-09-12T08:58:38;5.15;;;2.25;;
51098;SDS011;37146;48.210;16.234;2022-09-12T09:07:05;3.33;;;2.33;;
51098;SDS011;37146;48.210;16.234;2022-09-12T09:14:42;2.33;;;2.13;;
51098;SDS011;37146;48.210;16.234;2022-09-12T09:20:00;2.63;;;1.90;;
51098;SDS011;37146;48.210;16.234;2022-09-12T09:22:37;2.13;;;1.92;;
51098;SDS011;37146;48.210;16.234;2022-09-12T09:28:06;3.20;;;2.15;;
51098;SDS011;37146;48.210;16.234;2022-09-12T09:30:39;2.70;;;2.00;;
51098;SDS011;37146;48.210;16.234;2022-09-12T09:33:08;4.57;;;2.38;;
51098;SDS011;37146;48.210;16.234;2022-09-12T09:35:43;2.42;;;2.00;;
51098;SDS011;37146;48.210;16.234;2022-09-12T09:41:31;2.30;;;2.10;;
51098;SDS011;37146;48.210;16.234;2022-09-12T09:43:48;3.17;;;2.03;;
51098;SDS011;37146;48.210;16.234;2022-09-12T09:46:14;2.47;;;2.10;;
51098;SDS011;37146;48.210;16.234;2022-09-12T09:48:40;3.35;;;2.00;;
51098;SDS011;37146;48.210;16.234;2022-09-12T09:51:10;3.35;;;2.00;;
51098;SDS011;37146;48.210;16.234;2022-09-12T09:53:40;3.05;;;1.90;;
51098;SDS011;37146;48.210;16.234;2022-09-12T09:56:26;2.10;;;1.90;;
51098;SDS011;37146;48.210;16.234;2022-09-12T09:58:54;2.50;;;2.30;;
51098;SDS011;37146;48.210;16.234;2022-09-12T10:01:20;2.67;;;2.20;;
51098;SDS011;37146;48.210;16.234;2022-09-12T10:03:47;3.55;;;2.53;;
51098;SDS011;37146;48.210;16.234;2022-09-12T10:06:30;3.50;;;2.70;;
51098;SDS011;37146;48.210;16.234;2022-09-12T10:09:17;3.15;;;2.40;;
51098;SDS011;37146;48.210;16.234;2022-09-12T10:11:45;4.07;;;2.70;;
51098;SDS011;37146;48.210;16.234;2022-09-12T10:17:02;4.20;;;2.40;;
51098;SDS011;37146;48.210;16.234;2022-09-12T10:19:49;5.20;;;2.80;;
51098;SDS011;37146;48.210;16.234;2022-09-12T10:22:15;3.47;;;3.10;;
51098;SDS011;37146;48.210;16.234;2022-09-12T10:24:50;4.75;;;3.00;;
51098;SDS011;37146;48.210;16.234;2022-09-12T10:27:21;4.47;;;2.78;;
51098;SDS011;37146;48.210;16.234;2022-09-12T10:29:51;3.63;;;2.30;;
51098;SDS011;37146;48.210;16.234;2022-09-12T10:32:25;4.07;;;2.30;;
51098;SDS011;37146;48.210;16.234;2022-09-12T10:34:55;2.65;;;2.15;;
51098;SDS011;37146;48.210;16.234;2022-09-12T10:39:55;2.28;;;2.08;;
51098;SDS011;37146;48.210;16.234;2022-09-12T10:42:46;2.65;;;2.17;;
51098;SDS011;37146;48.210;16.234;2022-09-12T10:45:19;2.10;;;1.90;;
51098;SDS011;37146;48.210;16.234;2022-09-12T10:47:48;3.75;;;1.80;;
51098;SDS011;37146;48.210;16.234;2022-09-12T10:50:18;1.90;;;1.75;;
51098;SDS011;37146;48.210;16.234;2022-09-12T10:52:47;3.50;;;2.10;;
51098;SDS011;37146;48.210;16.234;2022-09-12T10:55:13;1.88;;;1.70;;
51098;SDS011;37146;48.210;16.234;2022-09-12T11:00:11;2.08;;;1.80;;
51098;SDS011;37146;48.210;16.234;2022-09-12T11:02:50;2.30;;;1.75;;
51098;SDS011;37146;48.210;16.234;2022-09-12T11:10:50;2.20;;;2.00;;
51098;SDS011;37146;48.210;16.234;2022-09-12T11:16:00;2.78;;;1.80;;
51098;SDS011;37146;48.210;16.234;2022-09-12T11:21:28;1.95;;;1.80;;
51098;SDS011;37146;48.210;16.234;2022-09-12T11:24:22;2.30;;;2.10;;
51098;SDS011;37146;48.210;16.234;2022-09-12T11:32:32;2.83;;;2.17;;
51098;SDS011;37146;48.210;16.234;2022-09-12T11:35:15;2.45;;;2.25;;
51098;SDS011;37146;48.210;16.234;2022-09-12T11:42:56;2.22;;;2.00;;
51098;SDS011;37146;48.210;16.234;2022-09-12T11:45:28;2.92;;;2.10;;
51098;SDS011;37146;48.210;16.234;2022-09-12T11:48:00;2.25;;;2.05;;
51098;SDS011;37146;48.210;16.234;2022-09-12T11:50:31;2.53;;;2.00;;
51098;SDS011;37146;48.210;16.234;2022-09-12T11:53:03;2.88;;;1.90;;
51098;SDS011;37146;48.210;16.234;2022-09-12T11:58:45;3.08;;;2.20;;
51098;SDS011;37146;48.210;16.234;2022-09-12T12:01:24;3.15;;;2.10;;
51098;SDS011;37146;48.210;16.234;2022-09-12T12:03:52;2.42;;;2.13;;
51098;SDS011;37146;48.210;16.234;2022-09-12T12:06:26;3.90;;;2.28;;
51098;SDS011;37146;48.210;16.234;2022-09-12T12:08:56;3.53;;;2.40;;
51098;SDS011;37146;48.210;16.234;2022-09-12T12:11:30;2.70;;;2.20;;
51098;SDS011;37146;48.210;16.234;2022-09-12T12:14:01;4.32;;;2.60;;
51098;SDS011;37146;48.210;16.234;2022-09-12T12:16:37;2.75;;;2.45;;
51098;SDS011;37146;48.210;16.234;2022-09-12T12:29:08;3.58;;;2.70;;
51098;SDS011;37146;48.210;16.234;2022-09-12T12:34:33;3.63;;;2.50;;
51098;SDS011;37146;48.210;16.234;2022-09-12T12:42:10;3.80;;;2.50;;
51098;SDS011;37146;48.210;16.234;2022-09-12T12:44:58;3.88;;;2.63;;
51098;SDS011;37146;48.210;16.234;2022-09-12T12:50:01;3.45;;;2.50;;
51098;SDS011;37146;48.210;16.234;2022-09-12T12:52:32;2.78;;;2.45;;
51098;SDS011;37146;48.210;16.234;2022-09-12T12:55:16;3.20;;;2.43;;
51098;SDS011;37146;48.210;16.234;2022-09-12T12:57:48;3.75;;;2.53;;
51098;SDS011;37146;48.210;16.234;2022-09-12T13:05:25;3.95;;;2.33;;
51098;SDS011;37146;48.210;16.234;2022-09-12T13:07:54;2.50;;;2.30;;
51098;SDS011;37146;48.210;16.234;2022-09-12T13:10:23;3.95;;;2.60;;
51098;SDS011;37146;48.210;16.234;2022-09-12T13:12:52;2.85;;;2.45;;
51098;SDS011;37146;48.210;16.234;2022-09-12T13:15:40;3.20;;;2.47;;
51098;SDS011;37146;48.210;16.234;2022-09-12T13:18:22;2.75;;;2.22;;
51098;SDS011;37146;48.210;16.234;2022-09-12T13:20:53;3.17;;;2.72;;
51098;SDS011;37146;48.210;16.234;2022-09-12T13:23:26;7.18;;;2.80;;
51098;SDS011;37146;48.210;16.234;2022-09-12T13:25:54;3.53;;;2.58;;
51098;SDS011;37146;48.210;16.234;2022-09-12T13:28:22;3.75;;;2.90;;
51098;SDS011;37146;48.210;16.234;2022-09-12T13:33:46;3.33;;;2.70;;
51098;SDS011;37146;48.210;16.234;2022-09-12T13:37:21;3.25;;;2.83;;
51098;SDS011;37146;48.210;16.234;2022-09-12T13:45:00;4.90;;;2.63;;
51098;SDS011;37146;48.210;16.234;2022-09-12T13:47:31;5.05;;;2.75;;
51098;SDS011;37146;48.210;16.234;2022-09-12T13:50:02;3.75;;;3.05;;
51098;SDS011;37146;48.210;16.234;2022-09-12T13:52:33;4.78;;;2.85;;
51098;SDS011;37146;48.210;16.234;2022-09-12T13:55:04;2.85;;;2.40;;
51098;SDS011;37146;48.210;16.234;2022-09-12T14:00:07;4.32;;;2.88;;
51098;SDS011;37146;48.210;16.234;2022-09-12T14:02:44;3.60;;;2.67;;
51098;SDS011;37146;48.210;16.234;2022-09-12T14:05:12;5.53;;;2.70;;
51098;SDS011;37146;48.210;16.234;2022-09-12T14:07:56;3.67;;;2.70;;
51098;SDS011;37146;48.210;16.234;2022-09-12T14:12:57;2.92;;;2.35;;
51098;SDS011;37146;48.210;16.234;2022-09-12T14:15:26;2.58;;;2.38;;
51098;SDS011;37146;48.210;16.234;2022-09-12T14:17:55;2.58;;;2.38;;
51098;SDS011;37146;48.210;16.234;2022-09-12T14:20:23;3.55;;;2.50;;
51098;SDS011;37146;48.210;16.234;2022-09-12T14:22:49;4.82;;;2.78;;
51098;SDS011;37146;48.210;16.234;2022-09-12T14:25:17;3.55;;;2.33;;
51098;SDS011;37146;48.210;16.234;2022-09-12T14:27:50;5.90;;;2.53;;
51098;SDS011;37146;48.210;16.234;2022-09-12T14:30:23;3.03;;;2.20;;
51098;SDS011;37146;48.210;16.234;2022-09-12T14:35:34;2.45;;;1.92;;
51098;SDS011;37146;48.210;16.234;2022-09-12T14:38:11;2.97;;;2.67;;
51098;SDS011;37146;48.210;16.234;2022-09-12T14:40:45;4.93;;;2.55;;
51098;SDS011;37146;48.210;16.234;2022-09-12T14:43:32;2.78;;;2.40;;
51098;SDS011;37146;48.210;16.234;2022-09-12T14:46:00;4.22;;;2.30;;
51098;SDS011;37146;48.210;16.234;2022-09-12T14:48:27;2.92;;;2.50;;
51098;SDS011;37146;48.210;16.234;2022-09-12T14:50:56;3.00;;;2.20;;
51098;SDS011;37146;48.210;16.234;2022-09-12T14:53:32;4.30;;;2.50;;
51098;SDS011;37146;48.210;16.234;2022-09-12T14:56:07;3.33;;;2.30;;
51098;SDS011;37146;48.210;16.234;2022-09-12T14:58:34;2.60;;;2.20;;
51098;SDS011;37146;48.210;16.234;2022-09-12T15:03:50;2.95;;;2.47;;
51098;SDS011;37146;48.210;16.234;2022-09-12T15:06:31;2.38;;;2.10;;
51098;SDS011;37146;48.210;16.234;2022-09-12T15:09:07;2.40;;;2.03;;
51098;SDS011;37146;48.210;16.234;2022-09-12T15:11:36;2.65;;;2.00;;
51098;SDS011;37146;48.210;16.234;2022-09-12T15:14:05;2.50;;;2.08;;
51098;SDS011;37146;48.210;16.234;2022-09-12T15:16:37;3.35;;;2.45;;
51098;SDS011;37146;48.210;16.234;2022-09-12T15:19:02;2.72;;;2.10;;
51098;SDS011;37146;48.210;16.234;2022-09-12T15:21:28;3.70;;;2.20;;
51098;SDS011;37146;48.210;16.234;2022-09-12T15:23:53;3.40;;;2.15;;
51098;SDS011;37146;48.210;16.234;2022-09-12T15:26:22;2.38;;;2.00;;
51098;SDS011;37146;48.210;16.234;2022-09-12T15:28:51;2.30;;;2.10;;
51098;SDS011;37146;48.210;16.234;2022-09-12T15:31:26;2.20;;;2.00;;
51098;SDS011;37146;48.210;16.234;2022-09-12T15:33:54;3.83;;;2.30;;
51098;SDS011;37146;48.210;16.234;2022-09-12T15:36:21;2.40;;;2.20;;
51098;SDS011;37146;48.210;16.234;2022-09-12T15:38:47;2.85;;;2.08;;
51098;SDS011;37146;48.210;16.234;2022-09-12T15:41:17;2.42;;;2.13;;
51098;SDS011;37146;48.210;16.234;2022-09-12T15:43:52;2.97;;;2.50;;
51098;SDS011;37146;48.210;16.234;2022-09-12T15:46:17;4.35;;;2.10;;
51098;SDS011;37146;48.210;16.234;2022-09-12T15:48:43;2.67;;;2.15;;
51098;SDS011;37146;48.210;16.234;2022-09-12T15:51:10;2.22;;;2.03;;
51098;SDS011;37146;48.210;16.234;2022-09-12T15:53:39;3.53;;;2.15;;
51098;SDS011;37146;48.210;16.234;2022-09-12T15:56:05;2.28;;;2.08;;
51098;SDS011;37146;48.210;16.234;2022-09-12T15:58:30;4.70;;;2.20;;
51098;SDS011;37146;48.210;16.234;2022-09-12T16:00:56;2.30;;;2.00;;
51098;SDS011;37146;48.210;16.234;2022-09-12T16:03:22;3.80;;;1.90;;
51098;SDS011;37146;48.210;16.234;2022-09-12T16:05:57;3.08;;;2.20;;
51098;SDS011;37146;48.210;16.234;2022-09-12T16:08:25;2.40;;;2.10;;
51098;SDS011;37146;48.210;16.234;2022-09-12T16:10:54;2.90;;;2.10;;
51098;SDS011;37146;48.210;16.234;2022-09-12T16:13:22;3.60;;;2.22;;
51098;SDS011;37146;48.210;16.234;2022-09-12T16:15:48;2.05;;;1.80;;
51098;SDS011;37146;48.210;16.234;2022-09-12T16:18:13;3.78;;;2.42;;
51098;SDS011;37146;48.210;16.234;2022-09-12T16:20:39;3.88;;;2.10;;
51098;SDS011;37146;48.210;16.234;2022-09-12T16:23:05;4.10;;;2.10;;
51098;SDS011;37146;48.210;16.234;2022-09-12T16:25:31;2.20;;;2.00;;
51098;SDS011;37146;48.210;16.234;2022-09-12T16:27:57;2.60;;;1.98;;
51098;SDS011;37146;48.210;16.234;2022-09-12T16:30:22;3.72;;;1.80;;
51098;SDS011;37146;48.210;16.234;2022-09-12T16:32:47;2.38;;;2.17;;
51098;SDS011;37146;48.210;16.234;2022-09-12T16:35:13;4.03;;;2.13;;
51098;SDS011;37146;48.210;16.234;2022-09-12T16:37:38;2.58;;;1.95;;
51098;SDS011;37146;48.210;16.234;2022-09-12T16:40:04;2.63;;;2.20;;
51098;SDS011;37146;48.210;16.234;2022-09-12T16:42:30;2.60;;;2.22;;
51098;SDS011;37146;48.210;16.234;2022-09-12T16:44:56;3.75;;;2.20;;
51098;SDS011;37146;48.210;16.234;2022-09-12T16:47:21;2.53;;;2.10;;
51098;SDS011;37146;48.210;16.234;2022-09-12T16:49:47;3.88;;;2.22;;
51098;SDS011;37146;48.210;16.234;2022-09-12T16:52:12;3.30;;;2.05;;
51098;SDS011;37146;48.210;16.234;2022-09-12T16:54:40;2.50;;;2.30;;
51098;SDS011;37146;48.210;16.234;2022-09-12T16:57:06;3.38;;;2.05;;
51098;SDS011;37146;48.210;16.234;2022-09-12T16:59:31;2.38;;;2.10;;
51098;SDS011;37146;48.210;16.234;2022-09-12T17:01:57;2.97;;;2.20;;
51098;SDS011;37146;48.210;16.234;2022-09-12T17:04:22;3.25;;;2.13;;
51098;SDS011;37146;48.210;16.234;2022-09-12T17:06:48;4.35;;;2.30;;
51098;SDS011;37146;48.210;16.234;2022-09-12T17:09:14;4.18;;;2.17;;
51098;SDS011;37146;48.210;16.234;2022-09-12T17:11:42;4.25;;;2.20;;